Flight Track Log - Related Links

Times and Time Zones

All times are in EST time to prevent confusion due to time zone crossing. See the SWA1672 flight status page for this flight to view local times or setup timezone preferences in your user account.

Time Position Orientation Groundspeed Altitude Reporting Facility
EST Latitude Longitude Course Direction KTS MPH feet Rate Location/Type
Sat 09:45:47 PM 37.6833 -122.4000 332° Northwest 235 270 3,700  Level Northern Cal TRACON
Sat 09:46:53 PM 37.6333 -122.4500 218° Southwest 233 268 7,400 3,042 Climbing Northern Cal TRACON
Sat 09:48:11 PM 37.5533 -122.4747 194° South 294 338 11,000 3,237 Climbing Oakland Center
Sat 09:49:12 PM 37.5156 -122.3744 115° Southeast 328 377 14,900 3,787 Climbing Oakland Center
Sat 09:50:00 PM 37.3562 -122.2341 136° Southeast  Level FlightAware Approximate
Sat 09:50:13 PM 37.4881 -122.2569 106° East 344 396 18,700  Level Oakland Center
Sat 09:51:14 PM 37.4586 -122.1314 106° East 366 421 22,000 3,124 Climbing Oakland Center
Sat 09:52:14 PM 37.4256 -121.9936 107° East 398 458 25,000 2,926 Climbing Oakland Center
Sat 09:53:15 PM 37.3914 -121.8503 107° East 422 486 27,900 3,000 Climbing Oakland Center
Sat 09:54:16 PM 37.3497 -121.6747 107° East 435 501 31,100 2,479 Climbing Oakland Center
Sat 09:55:16 PM 37.3158 -121.5386 107° East 454 522 32,900 942 Climbing Oakland Center
Sat 09:56:17 PM 37.2778 -121.3806 107° East 472 543 33,000 49 Climbing Oakland Center
Sat 09:57:18 PM 37.2364 -121.2142 107° East 497 572 33,000  Level Oakland Center
Sat 09:58:18 PM 37.1953 -121.0456 107° East 505 581 33,000  Level Oakland Center
Sat 09:59:19 PM 37.1539 -120.8794 107° East 502 578 33,000  Level Oakland Center
Sat 10:00:20 PM 37.1383 -120.7083 96° East 494 568 33,000  Level Oakland Center
Sat 10:01:20 PM 37.1244 -120.5069 95° East 485 558 33,000  Level Oakland Center
Sat 10:02:21 PM 37.1122 -120.3419 95° East 479 551 33,000 -99 Level Oakland Center
Sat 10:03:21 PM 37.1008 -120.1725 95° East 485 558 32,800 -595 Descending Oakland Center
Sat 10:04:22 PM 37.0881 -120.0122 96° East 469 540 31,800 -885 Descending Oakland Center
Sat 10:05:23 PM 37.0781 -119.8572 95° East 467 537 31,000 -397 Descending Oakland Center
Sat 10:06:23 PM 37.0656 -119.6969 96° East 464 534 31,000  Level Oakland Center
Sat 10:07:24 PM 37.0531 -119.5378 96° East 460 529 31,000  Level Oakland Center
Sat 10:08:24 PM 37.0400 -119.3736 96° East 471 542 31,000  Level Oakland Center
Sat 10:09:25 PM 37.0281 -119.2128 95° East 465 535 31,000  Level Oakland Center
Sat 10:10:26 PM 37.0142 -119.0522 96° East 463 533 31,000  Level Oakland Center
Sat 10:11:26 PM 37.0008 -118.8911 96° East 464 534 31,000  Level Oakland Center
Sat 10:12:27 PM 36.9875 -118.7278 96° East 472 543 31,000  Level Oakland Center
Sat 10:13:27 PM 36.9736 -118.5689 96° East 463 533 31,000  Level Oakland Center
Sat 10:14:28 PM 36.9603 -118.4008 96° East 460 529 31,000  Level Oakland Center
Sat 10:15:29 PM 36.9461 -118.2431 96° East 459 528 31,000  Level Oakland Center
Sat 10:16:29 PM 36.9306 -118.0828 97° East 465 535 31,000  Level Oakland Center
Sat 10:17:30 PM 36.9175 -117.9264 96° East 459 528 31,000  Level Oakland Center
Sat 10:18:30 PM 36.9006 -117.7675 98° East 458 527 31,000  Level Oakland Center
Sat 10:19:31 PM 36.8872 -117.6125 96° East 453 521 31,000 -984 Level Oakland Center
Sat 10:20:32 PM 36.8714 -117.4547 97° East 457 526 29,000 -992 Descending Oakland Center
Sat 10:21:32 PM 36.8578 -117.3039 96° East 446 513 29,000  Level Oakland Center
Sat 10:22:33 PM 36.8428 -117.1514 97° East 444 511 29,000 -595 Level Oakland Center
Sat 10:23:33 PM 36.7867 -116.9800 112° Southeast 452 520 27,800 -1,091 Descending Oakland Center
Sat 10:24:34 PM 36.7192 -116.8531 124° Southeast 443 510 26,800 -1,377 Descending Oakland Center
Sat 10:25:35 PM 36.6525 -116.7269 123° Southeast 441 507 25,000 -1,537 Descending Oakland Center
Sat 10:26:35 PM 36.5903 -116.6103 124° Southeast 427 491 23,700 -1,190 Descending Oakland Center
Sat 10:27:36 PM 36.5300 -116.5006 124° Southeast 408 470 22,600 -972 Descending Oakland Center
Sat 10:28:57 PM 36.4633 -116.3772 124° Southeast 369 425 21,400 -676 Descending Los Angeles Center
Sat 10:29:58 PM 36.4067 -116.2744 124° Southeast 362 417 21,000 -300 Descending Los Angeles Center
Sat 10:30:17 PM 36.3786 -116.2283 127° Southeast 360 414 21,000 -218 Level Los Angeles Center
Sat 10:30:53 PM 36.3464 -116.1667 123° Southeast 357 411 20,800 -571 Descending Los Angeles Center
Sat 10:30:59 PM 36.3414 -116.1519 113° Southeast 358 412 20,600 -1,770 Descending Los Angeles Center
Sat 10:31:54 PM 36.2906 -116.0644 126° Southeast 342 394 19,000 -1,645 Descending Los Angeles Center
Sat 10:32:01 PM 36.2867 -116.0544 116° Southeast 348 400 18,900 -1,964 Descending Los Angeles Center
Sat 10:32:49 PM 36.2383 -115.9694 125° Southeast 355 409 17,200 -2,066 Descending Los Angeles Center
Sat 10:33:02 PM 36.2283 -115.9458 118° Southeast 354 407 16,800 -1,200 Descending Los Angeles Center
Sat 10:33:49 PM 36.1917 -115.8700 121° Southeast 335 386 16,000 -689 Descending Los Angeles Center
Sat 10:34:03 PM 36.1836 -115.8461 113° Southeast 335 386 16,100 98 Climbing Los Angeles Center
Sat 10:34:50 PM 36.1550 -115.7569 112° Southeast 354 407 16,100  Level Los Angeles Center
Sat 10:35:04 PM 36.1481 -115.7339 110° East 356 410 16,100 -90 Level Los Angeles Center
Sat 10:35:57 PM 36.1158 -115.6339 112° Southeast 368 423 16,000 -387 Descending Los Angeles Center
Sat 10:36:06 PM 36.1094 -115.6178 116° Southeast 364 419 15,700 -2,057 Descending Los Angeles Center
Sat 10:37:07 PM 36.0708 -115.4989 112° Southeast 349 402 13,600 -2,143 Descending Los Angeles Center
Sat 10:37:58 PM 36.0417 -115.4081 112° Southeast 338 389 11,700 -2,164 Descending Los Angeles Center
Sat 10:38:08 PM 36.0367 -115.3911 110° East 340 391 11,400 -1,279 Descending Los Angeles Center
Sat 10:38:59 PM 36.0261 -115.2964 98° East 311 358 10,400 -968 Descending Los Angeles Center
Sat 10:39:10 PM 36.0244 -115.2856 101° East 311 358 10,400 -1,075 Level Los Angeles Center
Sat 10:40:06 PM 36.0186 -115.1925 94° East 278 320 9,200 -1,279 Descending Los Angeles Center
Sat 10:40:11 PM 36.0181 -115.1836 94° East 283 326 9,100 -1,180 Descending Los Angeles Center
Sat 10:41:07 PM 36.0119 -115.1017 95° East 268 308 8,000 -1,082 Descending Los Angeles Center
Sat 10:41:12 PM 36.0125 -115.0944 85° East 268 308 8,000 -98 Level Los Angeles Center
Sat 10:42:08 PM 36.0078 -115.0233 95° East 226 260 7,900 -98 Descending Los Angeles Center
Sat 10:42:13 PM 36.0069 -115.0164 98° East 227 261 7,900 -889 Level Los Angeles Center
Sat 10:43:02 PM 36.0125 -114.9658 82° East 190 219 7,100 -1,161 Descending Los Angeles Center
Sat 10:43:15 PM 36.0258 -114.9619 13° North 191 220 6,700 -1,180 Descending Los Angeles Center
Sat 10:44:03 PM 36.0586 -114.9692 350° North 156 180 5,900 -1,180 Descending Los Angeles Center
Sat 10:44:16 PM 36.0675 -114.9761 328° Northwest 154 177 5,500 -1,527 Descending Los Angeles Center
Sat 10:44:58 PM 36.0719 -115.0100 279° West 151 174 4,500 -1,377 Descending Los Angeles Center
Sat 10:45:17 PM 36.0736 -115.0233 279° West 139 160 4,100 -1,164 Descending Los Angeles Center
Sat 10:46:05 PM 36.0736 -115.0572 270° West 117 135 3,200 -984 Descending Los Angeles Center
Sat 10:46:18 PM 36.0736 -115.0661 270° West 118 136 3,100 -600 Descending Los Angeles Center
Sat 10:47:05 PM 36.0736 -115.0972 270° West 114 131 2,600 -677 Descending Los Angeles Center
Sat 10:47:20 PM 36.0736 -115.1056 270° West 117 135 2,400 -474 Descending Los Angeles Center
Sat 10:48:21 PM 36.0728 -115.1408 268° West 116 133 2,000 -393 Descending Los Angeles Center

Login

Don't have an account? Register now (free) for customized features, flight alerts, and more!